Aviation Digital Data Service (ADDS)

Output produced by METARs form (1907 UTC 26 September 2021)
found at http://www.aviationweather.gov/metar/data/
 
METAR text: RJKA 261000Z 05012KT 9999 FEW015 28/25 Q1011
Conditions at: RJKA (AMAMI AIRPORT , JP) observed 1000 UTC 26 September 2021
Temperature: 28.0°C (82°F)
Dewpoint: 25.0°C (77°F) [RH = 84%]
Pressure (altimeter): 29.85 inches Hg (1011.0 mb)
Winds: from the NE (50 degrees) at 14 MPH (12 knots; 6.2 m/s)
Visibility: 6 or more miles (10+ km)
Ceiling: at least 12,000 feet AGL
Clouds: few clouds at 1500 feet AGL
Weather: no significant weather observed at this time

METAR text: RJKA 260900Z 05009KT 9999 FEW015 28/25 Q1011
Conditions at: RJKA (AMAMI AIRPORT , JP) observed 0900 UTC 26 September 2021
Temperature: 28.0°C (82°F)
Dewpoint: 25.0°C (77°F) [RH = 84%]
Pressure (altimeter): 29.85 inches Hg (1011.0 mb)
Winds: from the NE (50 degrees) at 10 MPH (9 knots; 4.6 m/s)
Visibility: 6 or more miles (10+ km)
Ceiling: at least 12,000 feet AGL
Clouds: few clouds at 1500 feet AGL
Weather: no significant weather observed at this time

METAR text: RJKA 260800Z 05012KT 9999 FEW013 SCT015 28/26 Q1011
Conditions at: RJKA (AMAMI AIRPORT , JP) observed 0800 UTC 26 September 2021
Temperature: 28.0°C (82°F)
Dewpoint: 26.0°C (79°F) [RH = 89%]
Pressure (altimeter): 29.85 inches Hg (1011.0 mb)
Winds: from the NE (50 degrees) at 14 MPH (12 knots; 6.2 m/s)
Visibility: 6 or more miles (10+ km)
Ceiling: at least 12,000 feet AGL
Clouds: few clouds at 1300 feet AGL
scattered clouds at 1500 feet AGL
Weather: no significant weather observed at this time

METAR text: RJKA 260700Z 05011KT 9999 FEW015 29/26 Q1011
Conditions at: RJKA (AMAMI AIRPORT , JP) observed 0700 UTC 26 September 2021
Temperature: 29.0°C (84°F)
Dewpoint: 26.0°C (79°F) [RH = 84%]
Pressure (altimeter): 29.85 inches Hg (1011.0 mb)
Winds: from the NE (50 degrees) at 13 MPH (11 knots; 5.7 m/s)
Visibility: 6 or more miles (10+ km)
Ceiling: at least 12,000 feet AGL
Clouds: few clouds at 1500 feet AGL
Weather: no significant weather observed at this time

METAR text: RJKA 260600Z 07011KT 9999 -SHRA FEW013 SCT015 BKN045 27/26 Q1011
Conditions at: RJKA (AMAMI AIRPORT , JP) observed 0600 UTC 26 September 2021
Temperature: 27.0°C (81°F)
Dewpoint: 26.0°C (79°F) [RH = 94%]
Pressure (altimeter): 29.85 inches Hg (1011.0 mb)
Winds: from the ENE (70 degrees) at 13 MPH (11 knots; 5.7 m/s)
Visibility: 6 or more miles (10+ km)
Ceiling: 4500 feet AGL
Clouds: few clouds at 1300 feet AGL
scattered clouds at 1500 feet AGL
broken clouds at 4500 feet AGL
Weather: -SHRA  (light rain showers)

METAR text: RJKA 260500Z 03013KT 9999 FEW015 SCT070 31/27 Q1011
Conditions at: RJKA (AMAMI AIRPORT , JP) observed 0500 UTC 26 September 2021
Temperature: 31.0°C (88°F)
Dewpoint: 27.0°C (81°F) [RH = 79%]
Pressure (altimeter): 29.85 inches Hg (1011.0 mb)
Winds: from the NNE (30 degrees) at 15 MPH (13 knots; 6.7 m/s)
Visibility: 6 or more miles (10+ km)
Ceiling: at least 12,000 feet AGL
Clouds: few clouds at 1500 feet AGL
scattered clouds at 7000 feet AGL
Weather: no significant weather observed at this time

METAR text: RJKA 260400Z 03012KT 9999 FEW020 SCT/// 30/26 Q1012
Conditions at: RJKA (AMAMI AIRPORT , JP) observed 0400 UTC 26 September 2021
Temperature: 30.0°C (86°F)
Dewpoint: 26.0°C (79°F) [RH = 79%]
Pressure (altimeter): 29.88 inches Hg (1012.0 mb)
Winds: from the NNE (30 degrees) at 14 MPH (12 knots; 6.2 m/s)
Visibility: 6 or more miles (10+ km)
Ceiling: at least 12,000 feet AGL
Clouds: few clouds at 2000 feet AGL
Weather: no significant weather observed at this time

METAR text: RJKA 260300Z 02008KT 9999 FEW015 SCT020 29/25 Q1013
Conditions at: RJKA (AMAMI AIRPORT , JP) observed 0300 UTC 26 September 2021
Temperature: 29.0°C (84°F)
Dewpoint: 25.0°C (77°F) [RH = 79%]
Pressure (altimeter): 29.91 inches Hg (1013.0 mb)
Winds: from the NNE (20 degrees) at 9 MPH (8 knots; 4.1 m/s)
Visibility: 6 or more miles (10+ km)
Ceiling: at least 12,000 feet AGL
Clouds: few clouds at 1500 feet AGL
scattered clouds at 2000 feet AGL
Weather: no significant weather observed at this time

METAR text: RJKA 260200Z VRB02KT 9999 FEW015 SCT040 28/25 Q1013
Conditions at: RJKA (AMAMI AIRPORT , JP) observed 0200 UTC 26 September 2021
Temperature: 28.0°C (82°F)
Dewpoint: 25.0°C (77°F) [RH = 84%]
Pressure (altimeter): 29.91 inches Hg (1013.0 mb)
Winds: variable direction winds at 2 MPH (2 knots; 1.0 m/s)
Visibility: 6 or more miles (10+ km)
Ceiling: at least 12,000 feet AGL
Clouds: few clouds at 1500 feet AGL
scattered clouds at 4000 feet AGL
Weather: no significant weather observed at this time

METAR text: RJKA 260100Z VRB03KT 9999 -SHRA FEW007 BKN013 28/26 Q1013
Conditions at: RJKA (AMAMI AIRPORT , JP) observed 0100 UTC 26 September 2021
Temperature: 28.0°C (82°F)
Dewpoint: 26.0°C (79°F) [RH = 89%]
Pressure (altimeter): 29.91 inches Hg (1013.0 mb)
Winds: variable direction winds at 3 MPH (3 knots; 1.5 m/s)
Visibility: 6 or more miles (10+ km)
Ceiling: 1300 feet AGL
Clouds: few clouds at 700 feet AGL
broken clouds at 1300 feet AGL
Weather: -SHRA  (light rain showers)

METAR text: RJKA 260008Z 21005KT 170V250 9999 -SHRA FEW007 SCT015 BKN025 25/24 Q1014 RMK 1CU007 3CU015 6CU025 A2995 4000SW
Conditions at: RJKA (AMAMI AIRPORT , JP) observed 0008 UTC 26 September 2021
Temperature: 25.0°C (77°F)
Dewpoint: 24.0°C (75°F) [RH = 94%]
Pressure (altimeter): 29.94 inches Hg (1014.0 mb)
Winds: from the SSW (210 degrees) at 6 MPH (5 knots; 2.6 m/s)
Visibility: 6 or more miles (10+ km)
Ceiling: 2500 feet AGL
Clouds: few clouds at 700 feet AGL
scattered clouds at 1500 feet AGL
broken clouds at 2500 feet AGL
Weather: -SHRA  (light rain showers)

METAR text: RJKA 260000Z 23003KT 170V260 4000 R03/0800VP2000U -SHRA FEW007 SCT010 BKN015 24/23 Q1014
Conditions at: RJKA (AMAMI AIRPORT , JP) observed 0000 UTC 26 September 2021
Temperature: 24.0°C (75°F)
Dewpoint: 23.0°C (73°F) [RH = 94%]
Pressure (altimeter): 29.94 inches Hg (1014.0 mb)
Winds: from the SW (230 degrees) at 3 MPH (3 knots; 1.5 m/s)
Visibility: 2.49 miles (4.01 km)
Ceiling: 1500 feet AGL
Clouds: few clouds at 700 feet AGL
scattered clouds at 1000 feet AGL
broken clouds at 1500 feet AGL
Weather: -SHRA  (light rain showers)

METAR text: RJKA 252343Z VRB05KT 1000 R03/1100V1600U +SHRA FEW007 SCT010 BKN015 25/23 Q1014 RMK 1CU007 4CU010 7CU015 A2995
Conditions at: RJKA (AMAMI AIRPORT , JP) observed 2343 UTC 25 September 2021
Temperature: 25.0°C (77°F)
Dewpoint: 23.0°C (73°F) [RH = 89%]
Pressure (altimeter): 29.94 inches Hg (1014.0 mb)
Winds: variable direction winds at 6 MPH (5 knots; 2.6 m/s)
Visibility: 0.62 miles (1.00 km)
Ceiling: 1500 feet AGL
Clouds: few clouds at 700 feet AGL
scattered clouds at 1000 feet AGL
broken clouds at 1500 feet AGL
Weather: +SHRA  (heavy rain showers)

METAR text: RJKA 252336Z 14008KT 110V200 1500 R03/1100VP2000D SHRA FEW007 SCT010 BKN015 25/23 Q1013 RMK 1CU007 3CU010 6CU015 A2993
Conditions at: RJKA (AMAMI AIRPORT , JP) observed 2336 UTC 25 September 2021
Temperature: 25.0°C (77°F)
Dewpoint: 23.0°C (73°F) [RH = 89%]
Pressure (altimeter): 29.91 inches Hg (1013.0 mb)
Winds: from the SE (140 degrees) at 9 MPH (8 knots; 4.1 m/s)
Visibility: 0.93 miles (1.50 km)
Ceiling: 1500 feet AGL
Clouds: few clouds at 700 feet AGL
scattered clouds at 1000 feet AGL
broken clouds at 1500 feet AGL
Weather: SHRA  (rain showers)

METAR text: RJKA 252333Z 12008KT 110V180 2000 R03/1200VP2000D SHRA FEW007 SCT010 BKN015 26/23 Q1013 RMK 1CU007 3CU010 5CU015 A2993
Conditions at: RJKA (AMAMI AIRPORT , JP) observed 2333 UTC 25 September 2021
Temperature: 26.0°C (79°F)
Dewpoint: 23.0°C (73°F) [RH = 84%]
Pressure (altimeter): 29.91 inches Hg (1013.0 mb)
Winds: from the ESE (120 degrees) at 9 MPH (8 knots; 4.1 m/s)
Visibility: 1.24 miles (2.00 km)
Ceiling: 1500 feet AGL
Clouds: few clouds at 700 feet AGL
scattered clouds at 1000 feet AGL
broken clouds at 1500 feet AGL
Weather: SHRA  (rain showers)

METAR text: RJKA 252326Z 12009KT 4000 -SHRA FEW007 SCT010 BKN015 27/24 Q1013 RMK 1CU007 3CU010 5CU015 A2994
Conditions at: RJKA (AMAMI AIRPORT , JP) observed 2326 UTC 25 September 2021
Temperature: 27.0°C (81°F)
Dewpoint: 24.0°C (75°F) [RH = 84%]
Pressure (altimeter): 29.91 inches Hg (1013.0 mb)
Winds: from the ESE (120 degrees) at 10 MPH (9 knots; 4.6 m/s)
Visibility: 2.49 miles (4.01 km)
Ceiling: 1500 feet AGL
Clouds: few clouds at 700 feet AGL
scattered clouds at 1000 feet AGL
broken clouds at 1500 feet AGL
Weather: -SHRA  (light rain showers)

METAR text: RJKA 252300Z 36004KT 9999 -SHRA FEW015 SCT020 27/26 Q1013
Conditions at: RJKA (AMAMI AIRPORT , JP) observed 2300 UTC 25 September 2021
Temperature: 27.0°C (81°F)
Dewpoint: 26.0°C (79°F) [RH = 94%]
Pressure (altimeter): 29.91 inches Hg (1013.0 mb)
Winds: from the N (360 degrees) at 5 MPH (4 knots; 2.1 m/s)
Visibility: 6 or more miles (10+ km)
Ceiling: at least 12,000 feet AGL
Clouds: few clouds at 1500 feet AGL
scattered clouds at 2000 feet AGL
Weather: -SHRA  (light rain showers)

METAR text: RJKA 252200Z 01004KT 9999 VCSH FEW015 SCT035 26/25 Q1013
Conditions at: RJKA (AMAMI AIRPORT , JP) observed 2200 UTC 25 September 2021
Temperature: 26.0°C (79°F)
Dewpoint: 25.0°C (77°F) [RH = 94%]
Pressure (altimeter): 29.91 inches Hg (1013.0 mb)
Winds: from the N (10 degrees) at 5 MPH (4 knots; 2.1 m/s)
Visibility: 6 or more miles (10+ km)
Ceiling: at least 12,000 feet AGL
Clouds: few clouds at 1500 feet AGL
scattered clouds at 3500 feet AGL
Weather: VCSH  (showers in vicinity)

METAR text: RJKA 252130Z 35004KT 9999 FEW015 SCT040 26/25 Q1013
Conditions at: RJKA (AMAMI AIRPORT , JP) observed 2130 UTC 25 September 2021
Temperature: 26.0°C (79°F)
Dewpoint: 25.0°C (77°F) [RH = 94%]
Pressure (altimeter): 29.91 inches Hg (1013.0 mb)
Winds: from the N (350 degrees) at 5 MPH (4 knots; 2.1 m/s)
Visibility: 6 or more miles (10+ km)
Ceiling: at least 12,000 feet AGL
Clouds: few clouds at 1500 feet AGL
scattered clouds at 4000 feet AGL
Weather: no significant weather observed at this time

METAR text: RJKA 251000Z 08012KT 9999 FEW010 27/26 Q1014
Conditions at: RJKA (AMAMI AIRPORT , JP) observed 1000 UTC 25 September 2021
Temperature: 27.0°C (81°F)
Dewpoint: 26.0°C (79°F) [RH = 94%]
Pressure (altimeter): 29.94 inches Hg (1014.0 mb)
Winds: from the E (80 degrees) at 14 MPH (12 knots; 6.2 m/s)
Visibility: 6 or more miles (10+ km)
Ceiling: at least 12,000 feet AGL
Clouds: few clouds at 1000 feet AGL
Weather: no significant weather observed at this time

METAR text: RJKA 250900Z 09013KT 9999 FEW010 BKN012 27/26 Q1014
Conditions at: RJKA (AMAMI AIRPORT , JP) observed 0900 UTC 25 September 2021
Temperature: 27.0°C (81°F)
Dewpoint: 26.0°C (79°F) [RH = 94%]
Pressure (altimeter): 29.94 inches Hg (1014.0 mb)
Winds: from the E (90 degrees) at 15 MPH (13 knots; 6.7 m/s)
Visibility: 6 or more miles (10+ km)
Ceiling: 1200 feet AGL
Clouds: few clouds at 1000 feet AGL
broken clouds at 1200 feet AGL
Weather: no significant weather observed at this time

METAR text: RJKA 250800Z 07016KT 9999 FEW010 SCT025 BKN030 27/26 Q1014
Conditions at: RJKA (AMAMI AIRPORT , JP) observed 0800 UTC 25 September 2021
Temperature: 27.0°C (81°F)
Dewpoint: 26.0°C (79°F) [RH = 94%]
Pressure (altimeter): 29.94 inches Hg (1014.0 mb)
Winds: from the ENE (70 degrees) at 18 MPH (16 knots; 8.2 m/s)
Visibility: 6 or more miles (10+ km)
Ceiling: 3000 feet AGL
Clouds: few clouds at 1000 feet AGL
scattered clouds at 2500 feet AGL
broken clouds at 3000 feet AGL
Weather: no significant weather observed at this time

METAR text: RJKA 250729Z 08014KT 6000 R03/1000VP2000U -SHRA FEW010 SCT020 BKN025 26/25 Q1014 RMK 1CU010 3CU020 5CU025 A2995
Conditions at: RJKA (AMAMI AIRPORT , JP) observed 0729 UTC 25 September 2021
Temperature: 26.0°C (79°F)
Dewpoint: 25.0°C (77°F) [RH = 94%]
Pressure (altimeter): 29.94 inches Hg (1014.0 mb)
Winds: from the E (80 degrees) at 16 MPH (14 knots; 7.2 m/s)
Visibility: 4 miles ( 6 km)
Ceiling: 2500 feet AGL
Clouds: few clouds at 1000 feet AGL
scattered clouds at 2000 feet AGL
broken clouds at 2500 feet AGL
Weather: -SHRA  (light rain showers)

METAR text: RJKA 250716Z 08013KT 040V120 3000 R03/0700VP2000D +SHRA FEW007 SCT015 BKN020 26/25 Q1014 RMK 1CU007 3CU015 6CU020 A2994 RI++
Conditions at: RJKA (AMAMI AIRPORT , JP) observed 0716 UTC 25 September 2021
Temperature: 26.0°C (79°F)
Dewpoint: 25.0°C (77°F) [RH = 94%]
Pressure (altimeter): 29.94 inches Hg (1014.0 mb)
Winds: from the E (80 degrees) at 15 MPH (13 knots; 6.7 m/s)
Visibility: 1.86 miles (2.99 km)
Ceiling: 2000 feet AGL
Clouds: few clouds at 700 feet AGL
scattered clouds at 1500 feet AGL
broken clouds at 2000 feet AGL
Weather: +SHRA  (heavy rain showers)

METAR text: RJKA 250708Z 07009KT 030V120 9999 R03/1400VP2000U -SHRA FEW007 SCT020 BKN025 27/26 Q1013 RMK 1CU007 3CU020 5CU025 A2994
Conditions at: RJKA (AMAMI AIRPORT , JP) observed 0708 UTC 25 September 2021
Temperature: 27.0°C (81°F)
Dewpoint: 26.0°C (79°F) [RH = 94%]
Pressure (altimeter): 29.91 inches Hg (1013.0 mb)
Winds: from the ENE (70 degrees) at 10 MPH (9 knots; 4.6 m/s)
Visibility: 6 or more miles (10+ km)
Ceiling: 2500 feet AGL
Clouds: few clouds at 700 feet AGL
scattered clouds at 2000 feet AGL
broken clouds at 2500 feet AGL
Weather: -SHRA  (light rain showers)